createdAt,value
2019-05-15T00:00:39.422Z,2.70
2019-05-15T00:03:05.046Z,2.87
2019-05-15T00:05:30.565Z,2.90
2019-05-15T00:07:55.947Z,2.70
2019-05-15T00:10:21.424Z,2.87
2019-05-15T00:12:48.690Z,2.83
2019-05-15T00:15:14.342Z,2.35
2019-05-15T00:17:39.748Z,2.85
2019-05-15T00:20:05.595Z,2.77
2019-05-15T00:22:30.904Z,2.90
2019-05-15T00:24:58.159Z,3.20
2019-05-15T00:27:24.027Z,3.05
2019-05-15T00:29:49.534Z,3.58
2019-05-15T00:32:15.216Z,3.70
2019-05-15T00:34:40.633Z,3.37
2019-05-15T00:37:06.088Z,3.70
2019-05-15T00:39:39.029Z,3.00
2019-05-15T00:42:04.662Z,3.30
2019-05-15T00:44:30.132Z,3.00
2019-05-15T00:46:58.095Z,3.92
2019-05-15T00:49:22.944Z,3.15
2019-05-15T00:51:48.808Z,3.07
2019-05-15T00:54:14.376Z,3.17
2019-05-15T00:56:39.806Z,3.55
2019-05-15T00:59:05.258Z,3.37
2019-05-15T01:01:30.732Z,3.83
2019-05-15T01:03:58.426Z,3.33
2019-05-15T01:06:23.561Z,3.17
2019-05-15T01:08:48.992Z,3.10
2019-05-15T01:11:14.720Z,3.45
2019-05-15T01:13:40.173Z,3.95
2019-05-15T01:16:05.699Z,3.72
2019-05-15T01:18:31.166Z,4.05
2019-05-15T01:20:58.689Z,3.90
2019-05-15T01:23:24.034Z,3.52
2019-05-15T01:25:49.388Z,3.27
2019-05-15T01:28:15.115Z,3.10
2019-05-15T01:30:40.543Z,3.27
2019-05-15T01:33:08.279Z,3.33
2019-05-15T01:35:33.114Z,3.57
2019-05-15T01:37:58.893Z,3.50
2019-05-15T01:40:24.611Z,3.80
2019-05-15T01:42:50.122Z,3.37
2019-05-15T01:45:15.983Z,3.83
2019-05-15T01:47:41.442Z,3.83
2019-05-15T01:50:09.219Z,3.85
2019-05-15T01:52:34.280Z,3.75
2019-05-15T01:54:59.730Z,3.60
2019-05-15T01:57:25.222Z,3.22
2019-05-15T01:59:57.218Z,3.72
2019-05-15T02:02:18.713Z,3.42
2019-05-15T02:04:44.280Z,3.93
2019-05-15T02:07:09.721Z,4.00
2019-05-15T02:09:35.256Z,3.40
2019-05-15T02:12:00.598Z,3.52
2019-05-15T02:14:28.332Z,3.80
2019-05-15T02:16:53.464Z,3.47
2019-05-15T02:19:19.380Z,3.47
2019-05-15T02:21:44.994Z,3.33
2019-05-15T02:24:10.451Z,3.83
2019-05-15T02:26:35.876Z,4.03
2019-05-15T02:29:01.539Z,3.92
2019-05-15T02:31:29.831Z,3.90
2019-05-15T02:33:54.186Z,3.80
2019-05-15T02:36:20.714Z,3.90
2019-05-15T02:38:48.688Z,3.50
2019-05-15T02:41:13.819Z,3.65
2019-05-15T02:43:39.508Z,3.87
2019-05-15T02:46:04.979Z,3.50
2019-05-15T02:48:30.440Z,3.35
2019-05-15T02:50:58.650Z,3.10
2019-05-15T02:53:22.910Z,3.43
2019-05-15T02:55:49.586Z,2.80
2019-05-15T02:58:15.220Z,3.50
2019-05-15T03:00:48.233Z,3.40
2019-05-15T03:03:09.436Z,3.27
2019-05-15T03:05:35.123Z,3.53
2019-05-15T03:08:00.545Z,3.72
2019-05-15T03:10:29.409Z,3.13
2019-05-15T03:12:53.467Z,3.40
2019-05-15T03:15:19.514Z,3.10
2019-05-15T03:17:45.055Z,3.10
2019-05-15T03:20:11.890Z,3.30
2019-05-15T03:22:40.015Z,3.50
2019-05-15T03:25:04.963Z,3.40
2019-05-15T03:27:34.339Z,3.72
2019-05-15T03:29:59.379Z,3.30
2019-05-15T03:32:40.433Z,3.60
2019-05-15T03:34:56.483Z,3.27
2019-05-15T03:37:22.144Z,3.27
2019-05-15T03:39:51.614Z,3.30
2019-05-15T03:42:14.279Z,2.92
2019-05-15T03:44:39.835Z,3.70
2019-05-15T03:47:05.292Z,3.30
2019-05-15T03:49:30.723Z,3.67
2019-05-15T03:51:58.781Z,3.25
2019-05-15T03:54:23.795Z,3.33
2019-05-15T03:56:50.106Z,3.33
2019-05-15T03:59:15.788Z,3.50
2019-05-15T04:01:43.850Z,3.27
2019-05-15T04:04:09.567Z,3.42
2019-05-15T04:06:38.840Z,3.10
2019-05-15T04:09:02.882Z,3.07
2019-05-15T04:11:29.417Z,3.80
2019-05-15T04:13:55.277Z,3.47
2019-05-15T04:16:20.691Z,3.83
2019-05-15T04:18:49.122Z,3.52
2019-05-15T04:21:20.017Z,3.37
2019-05-15T04:23:50.118Z,3.40
2019-05-15T04:26:15.916Z,3.93
2019-05-15T04:28:42.795Z,3.60
2019-05-15T04:31:09.389Z,3.23
2019-05-15T04:33:35.283Z,3.80
2019-05-15T04:36:00.705Z,3.63
2019-05-15T04:38:28.923Z,4.70
2019-05-15T04:40:53.174Z,3.75
2019-05-15T04:43:19.423Z,4.13
2019-05-15T04:45:45.377Z,4.10
2019-05-15T04:48:10.818Z,4.30
2019-05-15T04:50:39.545Z,4.08
2019-05-15T04:53:03.749Z,4.37
2019-05-15T04:55:29.312Z,4.20
2019-05-15T04:57:54.800Z,4.67
2019-05-15T05:00:49.547Z,4.10
2019-05-15T05:03:14.405Z,4.47
2019-05-15T05:05:40.778Z,4.80
2019-05-15T05:08:09.093Z,4.45
2019-05-15T05:10:33.397Z,4.77
2019-05-15T05:12:59.151Z,4.37
2019-05-15T05:15:24.987Z,4.23
2019-05-15T05:17:50.442Z,5.20
2019-05-15T05:20:17.892Z,4.23
2019-05-15T05:22:43.090Z,4.03
2019-05-15T05:25:08.555Z,4.10
2019-05-15T05:27:34.023Z,3.67
2019-05-15T05:29:59.461Z,4.00
2019-05-15T05:32:31.947Z,3.60
2019-05-15T05:34:52.274Z,3.77
2019-05-15T05:37:18.455Z,4.23
2019-05-15T05:39:43.939Z,4.00
2019-05-15T05:42:13.745Z,4.07
2019-05-15T05:44:42.548Z,3.83
2019-05-15T05:47:09.124Z,3.50
2019-05-15T05:49:33.629Z,4.12
2019-05-15T05:51:59.559Z,4.05
2019-05-15T05:54:25.174Z,4.05
2019-05-15T05:56:51.323Z,3.98
2019-05-15T05:59:18.601Z,3.97
2019-05-15T06:01:44.477Z,3.87
2019-05-15T06:04:09.941Z,3.90
2019-05-15T06:06:38.464Z,4.80
2019-05-15T06:09:04.282Z,4.03
2019-05-15T06:11:30.187Z,3.75
2019-05-15T06:13:58.240Z,3.30
2019-05-15T06:16:22.876Z,2.83
2019-05-15T06:18:51.674Z,2.85
2019-05-15T06:21:17.960Z,2.55
2019-05-15T06:23:46.221Z,2.63
2019-05-15T06:26:10.916Z,2.27
2019-05-15T06:28:39.138Z,2.07
2019-05-15T06:31:08.734Z,2.27
2019-05-15T06:33:34.798Z,3.10
2019-05-15T06:36:00.273Z,3.47
2019-05-15T06:38:30.765Z,2.87
2019-05-15T06:40:54.114Z,3.58
2019-05-15T06:43:20.320Z,3.40
2019-05-15T06:45:48.473Z,3.08
2019-05-15T06:48:13.914Z,2.20
2019-05-15T06:50:42.491Z,2.67
2019-05-15T06:53:10.859Z,2.30
2019-05-15T06:55:38.630Z,2.47
2019-05-15T06:58:04.211Z,2.30
2019-05-15T07:00:29.994Z,2.08
2019-05-15T07:02:58.120Z,2.10
2019-05-15T07:05:22.805Z,1.60
2019-05-15T07:07:48.846Z,1.67
2019-05-15T07:10:14.577Z,2.08
2019-05-15T07:12:40.119Z,2.05
2019-05-15T07:15:06.129Z,2.42
2019-05-15T07:17:36.193Z,2.08
2019-05-15T07:20:01.999Z,1.82
2019-05-15T07:22:28.971Z,1.90
2019-05-15T07:24:54.659Z,1.30
2019-05-15T07:27:20.188Z,1.42
2019-05-15T07:29:45.741Z,1.30
2019-05-15T07:32:11.121Z,1.20
2019-05-15T07:34:37.894Z,1.10
2019-05-15T07:37:03.519Z,1.32
2019-05-15T07:39:29.035Z,1.32
2019-05-15T07:41:54.548Z,1.32
2019-05-15T07:44:20.102Z,1.40
2019-05-15T07:46:45.587Z,1.50
2019-05-15T07:49:11.343Z,1.25
2019-05-15T07:51:38.153Z,1.72
2019-05-15T07:54:03.820Z,1.10
2019-05-15T07:56:29.310Z,1.05
2019-05-15T07:58:54.827Z,1.47
2019-05-15T08:01:20.274Z,1.37
2019-05-15T08:03:56.628Z,1.20
2019-05-15T08:06:13.011Z,1.25
2019-05-15T08:08:39.307Z,1.42
2019-05-15T08:11:17.524Z,1.35
2019-05-15T08:13:32.344Z,1.50
2019-05-15T08:16:01.063Z,1.27
2019-05-15T08:18:28.538Z,1.40
2019-05-15T08:20:53.882Z,1.60
2019-05-15T08:23:19.834Z,1.30
2019-05-15T08:25:45.244Z,1.17
2019-05-15T08:28:10.721Z,1.70
2019-05-15T08:30:38.124Z,1.72
2019-05-15T08:33:03.762Z,1.30
2019-05-15T08:35:29.352Z,1.55
2019-05-15T08:37:54.865Z,1.45
2019-05-15T08:40:20.592Z,1.25
2019-05-15T08:42:54.540Z,1.30
2019-05-15T08:45:13.942Z,1.10
2019-05-15T08:47:39.420Z,1.27
2019-05-15T08:50:05.676Z,1.00
2019-05-15T08:52:31.150Z,0.90
2019-05-15T08:54:58.857Z,1.00
2019-05-15T08:57:23.980Z,1.20
2019-05-15T08:59:49.394Z,1.35
2019-05-15T09:02:14.982Z,0.98
2019-05-15T09:04:40.459Z,1.15
2019-05-15T09:07:05.929Z,1.12
2019-05-15T09:09:31.385Z,1.45
2019-05-15T09:11:58.521Z,1.40
2019-05-15T09:14:24.140Z,1.20
2019-05-15T09:16:49.861Z,1.17
2019-05-15T09:19:15.313Z,1.27
2019-05-15T09:21:40.767Z,1.20
2019-05-15T09:24:09.143Z,1.20
2019-05-15T09:26:35.496Z,1.00
2019-05-15T09:29:01.257Z,0.98
2019-05-15T09:31:28.413Z,1.10
2019-05-15T09:33:53.904Z,1.20
2019-05-15T09:36:20.144Z,1.32
2019-05-15T09:38:48.860Z,1.00
2019-05-15T09:41:13.441Z,1.32
2019-05-15T09:43:42.151Z,1.50
2019-05-15T09:46:08.153Z,1.22
2019-05-15T09:48:33.235Z,1.20
2019-05-15T09:50:58.934Z,1.20
2019-05-15T09:53:24.426Z,1.40
2019-05-15T09:55:50.027Z,1.30
2019-05-15T09:58:15.497Z,1.40
2019-05-15T10:00:40.995Z,1.40
2019-05-15T10:03:09.363Z,1.37
2019-05-15T10:05:33.742Z,1.30
2019-05-15T10:08:00.232Z,1.27
2019-05-15T10:10:25.691Z,1.05
2019-05-15T10:12:51.114Z,1.45
2019-05-15T10:15:18.573Z,1.22
2019-05-15T10:17:45.726Z,1.52
2019-05-15T10:20:11.539Z,1.30
2019-05-15T10:22:37.006Z,1.52
2019-05-15T10:25:02.494Z,2.00
2019-05-15T10:27:28.682Z,2.05
2019-05-15T10:29:55.000Z,1.57
2019-05-15T10:32:20.469Z,1.80
2019-05-15T10:34:45.990Z,1.75
2019-05-15T10:37:11.427Z,1.40
2019-05-15T10:39:38.433Z,1.80
2019-05-15T10:42:04.152Z,1.60
2019-05-15T10:44:29.643Z,1.55
2019-05-15T10:46:55.341Z,1.40
2019-05-15T10:49:20.809Z,2.17
2019-05-15T10:51:46.264Z,1.70
2019-05-15T10:54:11.961Z,1.85
2019-05-15T10:56:38.539Z,1.67
2019-05-15T10:59:04.209Z,1.37
2019-05-15T11:01:29.650Z,1.45
2019-05-15T11:03:55.110Z,1.55
2019-05-15T11:06:20.535Z,1.65
2019-05-15T11:08:51.061Z,1.72
2019-05-15T11:11:13.167Z,1.70
2019-05-15T11:13:38.606Z,1.52
2019-05-15T11:16:04.412Z,1.32
2019-05-15T11:18:30.775Z,1.42
2019-05-15T11:20:58.593Z,1.32
2019-05-15T11:23:23.494Z,1.80
2019-05-15T11:25:49.047Z,1.67
2019-05-15T11:28:14.870Z,1.90
2019-05-15T11:30:40.368Z,1.82
2019-05-15T11:33:06.129Z,1.85
2019-05-15T11:35:31.888Z,1.45
2019-05-15T11:37:57.315Z,1.60
2019-05-15T11:40:23.361Z,1.70
2019-05-15T11:42:48.894Z,1.30
2019-05-15T11:45:18.314Z,2.00
2019-05-15T11:47:43.302Z,1.80
2019-05-15T11:50:10.311Z,1.85
2019-05-15T11:52:37.339Z,2.30
2019-05-15T11:55:02.928Z,1.65
2019-05-15T11:57:39.239Z,1.80
2019-05-15T11:59:58.822Z,1.50
2019-05-15T12:02:22.792Z,1.40
2019-05-15T12:04:48.479Z,1.70
2019-05-15T12:07:14.341Z,1.45
2019-05-15T12:09:39.817Z,1.60
2019-05-15T12:12:05.365Z,1.30
2019-05-15T12:14:30.849Z,1.80
2019-05-15T12:17:06.998Z,1.55
2019-05-15T12:19:23.542Z,1.82
2019-05-15T12:21:50.008Z,1.32
2019-05-15T12:24:15.490Z,1.65
2019-05-15T12:26:40.872Z,1.50
2019-05-15T12:29:09.559Z,1.62
2019-05-15T12:31:33.543Z,1.30
2019-05-15T12:33:59.011Z,1.80
2019-05-15T12:38:51.873Z,1.50
2019-05-15T13:00:57.992Z,1.82
2019-05-15T13:03:23.548Z,1.40
2019-05-15T13:05:49.007Z,1.42
2019-05-15T13:08:14.538Z,1.60
2019-05-15T13:10:40.014Z,2.08
2019-05-15T13:13:08.983Z,1.90
2019-05-15T13:15:33.215Z,1.77
2019-05-15T13:17:59.665Z,1.67
2019-05-15T13:20:25.217Z,1.50
2019-05-15T13:25:18.863Z,1.85
2019-05-15T13:27:43.904Z,1.52
2019-05-15T13:30:10.019Z,1.60
2019-05-15T13:32:35.633Z,1.35
2019-05-15T13:35:01.372Z,1.70
2019-05-15T13:37:30.578Z,1.52
2019-05-15T13:39:54.156Z,1.72
2019-05-15T13:42:19.588Z,1.62
2019-05-15T13:44:44.944Z,1.75
2019-05-15T13:47:10.499Z,1.80
2019-05-15T13:49:35.931Z,2.17
2019-05-15T13:52:01.380Z,1.90
2019-05-15T13:54:28.583Z,1.90
2019-05-15T13:56:53.971Z,1.65
2019-05-15T13:59:19.428Z,1.70
2019-05-15T14:01:44.900Z,1.80
2019-05-15T14:04:10.323Z,1.65
2019-05-15T14:06:38.099Z,1.47
2019-05-15T14:09:05.765Z,1.82
2019-05-15T14:11:31.694Z,1.72
2019-05-15T14:13:59.473Z,1.62
2019-05-15T14:16:24.324Z,1.95
2019-05-15T14:18:49.771Z,2.20
2019-05-15T14:21:15.219Z,1.85
2019-05-15T14:23:40.746Z,1.87
2019-05-15T14:26:17.740Z,2.15
2019-05-15T14:28:33.664Z,1.85
2019-05-15T14:30:59.205Z,1.55
2019-05-15T14:33:24.765Z,1.60
2019-05-15T14:35:51.283Z,1.85
2019-05-15T14:38:18.662Z,1.55
2019-05-15T14:40:44.488Z,1.45
2019-05-15T14:43:09.978Z,1.57
2019-05-15T14:45:35.446Z,1.75
2019-05-15T14:48:00.888Z,2.12
2019-05-15T14:50:38.667Z,1.82
2019-05-15T14:53:04.116Z,1.55
2019-05-15T14:55:33.634Z,1.92
2019-05-15T14:57:58.778Z,2.12
2019-05-15T15:00:28.997Z,1.55
2019-05-15T15:02:51.845Z,1.92
2019-05-15T15:05:21.582Z,2.10
2019-05-15T15:07:44.853Z,2.30
2019-05-15T15:10:10.694Z,1.80
2019-05-15T15:12:39.113Z,2.05
2019-05-15T15:15:03.647Z,1.80
2019-05-15T15:17:29.104Z,1.80
2019-05-15T15:19:54.784Z,1.77
2019-05-15T15:26:24.252Z,1.65
2019-05-15T15:28:52.849Z,2.02
2019-05-15T15:31:19.149Z,1.82
2019-05-15T15:33:44.709Z,1.92
2019-05-15T15:36:10.163Z,1.50
2019-05-15T15:38:43.183Z,1.70
2019-05-15T15:41:02.724Z,2.17
2019-05-15T15:43:30.209Z,1.98
2019-05-15T15:45:57.932Z,1.65
2019-05-15T15:48:22.837Z,1.80
2019-05-15T15:50:48.778Z,1.50
2019-05-15T15:53:14.245Z,1.80
2019-05-15T15:55:39.905Z,1.42
2019-05-15T15:58:05.378Z,1.60
2019-05-15T16:00:30.799Z,1.95
2019-05-15T16:02:56.668Z,1.90
2019-05-15T16:05:22.105Z,1.60
2019-05-15T16:07:48.593Z,1.57
2019-05-15T16:10:14.218Z,1.85
2019-05-15T16:12:39.662Z,1.70
2019-05-15T16:15:05.593Z,1.70
2019-05-15T16:17:31.479Z,1.75
2019-05-15T16:19:57.112Z,1.80
2019-05-15T16:22:22.588Z,1.92
2019-05-15T16:24:49.156Z,1.80
2019-05-15T16:27:14.799Z,1.90
2019-05-15T16:29:40.240Z,1.67
2019-05-15T16:32:05.719Z,1.85
2019-05-15T16:34:31.161Z,1.70
2019-05-15T16:36:58.532Z,2.00
2019-05-15T16:39:24.127Z,1.70
2019-05-15T16:41:49.586Z,1.70
2019-05-15T16:44:15.044Z,1.87
2019-05-15T16:46:40.707Z,1.60
2019-05-15T16:49:06.224Z,2.27
2019-05-15T16:51:32.533Z,2.00
2019-05-15T16:53:58.236Z,1.90
2019-05-15T16:56:23.731Z,2.20
2019-05-15T16:58:49.182Z,2.37
2019-05-15T17:01:14.531Z,2.00
2019-05-15T17:03:40.006Z,2.33
2019-05-15T17:06:05.451Z,2.45
2019-05-15T17:08:32.307Z,1.67
2019-05-15T17:10:58.661Z,1.77
2019-05-15T17:13:24.395Z,1.75
2019-05-15T17:15:49.978Z,1.40
2019-05-15T17:18:17.964Z,1.45
2019-05-15T17:20:42.715Z,1.50
2019-05-15T17:23:08.763Z,1.60
2019-05-15T17:25:37.980Z,1.40
2019-05-15T17:28:02.584Z,1.75
2019-05-15T17:30:28.785Z,1.85
2019-05-15T17:32:54.850Z,1.57
2019-05-15T17:35:20.305Z,1.47
2019-05-15T17:37:48.569Z,1.40
2019-05-15T17:40:14.609Z,1.57
2019-05-15T17:42:40.339Z,1.75
2019-05-15T17:45:09.550Z,1.40
2019-05-15T17:47:38.801Z,1.47
2019-05-15T17:50:04.713Z,1.55
2019-05-15T17:52:30.476Z,1.65
2019-05-15T17:54:55.911Z,1.42
2019-05-15T17:57:21.411Z,1.50
2019-05-15T17:59:48.611Z,1.70
2019-05-15T18:02:14.340Z,1.37
2019-05-15T18:04:39.951Z,1.30
2019-05-15T18:07:05.493Z,1.40
2019-05-15T18:09:31.249Z,1.45
2019-05-15T18:11:58.593Z,1.67
2019-05-15T18:14:24.311Z,1.42
2019-05-15T18:16:50.963Z,1.60
2019-05-15T18:19:18.775Z,1.55
2019-05-15T18:21:44.040Z,1.70
2019-05-15T18:24:09.591Z,1.42
2019-05-15T18:26:35.556Z,1.80
2019-05-15T18:29:00.941Z,1.15
2019-05-15T18:31:28.500Z,1.50
2019-05-15T18:33:55.622Z,1.20
2019-05-15T18:36:21.224Z,1.40
2019-05-15T18:38:48.220Z,1.60
2019-05-15T18:41:13.918Z,1.25
2019-05-15T18:43:40.186Z,1.47
2019-05-15T18:46:05.756Z,1.55
2019-05-15T18:48:32.243Z,1.17
2019-05-15T18:50:58.768Z,1.32
2019-05-15T18:53:25.100Z,1.90
2019-05-15T18:55:50.576Z,1.50
2019-05-15T18:58:19.064Z,1.62
2019-05-15T19:00:43.960Z,1.20
2019-05-15T19:03:18.793Z,1.50
2019-05-15T19:05:38.670Z,1.30
2019-05-15T19:08:03.935Z,1.17
2019-05-15T19:10:29.450Z,1.30
2019-05-15T19:12:54.896Z,1.35
2019-05-15T19:15:20.576Z,1.40
2019-05-15T19:17:47.825Z,1.12
2019-05-15T19:20:13.794Z,1.55
2019-05-15T19:22:41.033Z,1.10
2019-05-15T19:25:08.889Z,1.17
2019-05-15T19:27:34.256Z,1.47
2019-05-15T19:30:01.176Z,1.90
2019-05-15T19:32:27.910Z,1.52
2019-05-15T19:34:53.662Z,2.35
2019-05-15T19:37:19.535Z,2.47
2019-05-15T19:39:45.128Z,2.22
2019-05-15T19:42:11.007Z,2.08
2019-05-15T19:44:37.781Z,2.33
2019-05-15T19:47:03.503Z,2.05
2019-05-15T19:49:30.015Z,2.17
2019-05-15T19:51:57.942Z,1.92
2019-05-15T19:54:23.328Z,2.00
2019-05-15T19:56:48.673Z,1.82
2019-05-15T19:59:14.400Z,1.62
2019-05-15T20:01:39.900Z,1.50
2019-05-15T20:04:05.342Z,1.60
2019-05-15T20:06:32.583Z,1.32
2019-05-15T20:08:58.613Z,1.75
2019-05-15T20:11:24.308Z,1.75
2019-05-15T20:13:49.765Z,1.82
2019-05-15T20:16:18.150Z,1.65
2019-05-15T20:18:42.412Z,1.80
2019-05-15T20:21:08.882Z,2.20
2019-05-15T20:23:34.683Z,1.85
2019-05-15T20:26:08.376Z,1.90
2019-05-15T20:28:34.234Z,1.90
2019-05-15T20:30:59.711Z,2.17
2019-05-15T20:33:25.151Z,2.10
2019-05-15T20:35:50.631Z,2.60
2019-05-15T20:38:16.071Z,2.20
2019-05-15T20:40:41.539Z,3.00
2019-05-15T20:43:08.212Z,2.40
2019-05-15T20:45:33.852Z,2.75
2019-05-15T20:47:59.288Z,2.92
2019-05-15T20:50:24.806Z,3.27
2019-05-15T20:52:50.456Z,2.98
2019-05-15T20:55:16.021Z,3.00
2019-05-15T20:57:42.291Z,3.17
2019-05-15T21:00:13.106Z,2.58
2019-05-15T21:02:38.708Z,2.77
2019-05-15T21:05:04.574Z,3.15
2019-05-15T21:07:38.112Z,2.70
2019-05-15T21:09:58.820Z,3.00
2019-05-15T21:12:27.083Z,2.85
2019-05-15T21:14:52.429Z,2.83
2019-05-15T21:17:19.897Z,3.27
2019-05-15T21:19:45.125Z,2.60
2019-05-15T21:22:11.147Z,2.22
2019-05-15T21:24:37.809Z,2.58
2019-05-15T21:27:03.394Z,2.50
2019-05-15T21:29:28.895Z,2.72
2019-05-15T21:31:54.378Z,2.72
2019-05-15T21:34:36.617Z,2.25
2019-05-15T21:36:52.075Z,2.62
2019-05-15T21:39:16.691Z,2.65
2019-05-15T21:41:42.142Z,2.83
2019-05-15T21:44:08.569Z,2.70
2019-05-15T21:46:34.250Z,2.45
2019-05-15T21:49:00.871Z,2.67
2019-05-15T21:51:28.142Z,2.85
2019-05-15T21:53:53.693Z,2.98
2019-05-15T21:56:19.167Z,3.15
2019-05-15T21:58:44.857Z,2.77
2019-05-15T22:01:11.355Z,2.77
2019-05-15T22:03:38.877Z,2.95
2019-05-15T22:06:04.853Z,2.60
2019-05-15T22:08:30.351Z,2.35
2019-05-15T22:10:55.874Z,2.60
2019-05-15T22:13:21.337Z,2.98
2019-05-15T22:15:47.903Z,2.90
2019-05-15T22:18:14.363Z,2.77
2019-05-15T22:20:40.566Z,3.10
2019-05-15T22:23:08.089Z,2.83
2019-05-15T22:25:33.895Z,2.90
2019-05-15T22:27:59.639Z,2.87
2019-05-15T22:30:29.658Z,2.72
2019-05-15T22:32:52.601Z,3.10
2019-05-15T22:35:20.699Z,2.92
2019-05-15T22:37:46.221Z,2.85
2019-05-15T22:40:13.303Z,3.30
2019-05-15T22:42:39.337Z,2.90
2019-05-15T22:45:05.774Z,2.67
2019-05-15T22:47:31.232Z,2.72
2019-05-15T22:49:58.932Z,3.02
2019-05-15T22:52:24.228Z,2.55
2019-05-15T22:54:49.845Z,2.95
2019-05-15T22:57:15.315Z,2.55
2019-05-15T22:59:41.128Z,3.17
2019-05-15T23:02:09.146Z,3.30
2019-05-15T23:04:34.097Z,3.30
2019-05-15T23:06:59.594Z,3.37
2019-05-15T23:09:25.322Z,3.22
2019-05-15T23:11:50.810Z,2.83
2019-05-15T23:14:18.086Z,2.83
2019-05-15T23:16:43.638Z,2.70
2019-05-15T23:19:09.398Z,3.35
2019-05-15T23:21:37.165Z,2.83
2019-05-15T23:24:02.016Z,2.62
2019-05-15T23:26:28.295Z,2.62
2019-05-15T23:28:53.772Z,3.10
2019-05-15T23:31:19.273Z,2.65
2019-05-15T23:33:44.759Z,2.37
2019-05-15T23:36:10.294Z,2.55
2019-05-15T23:38:35.786Z,2.40
2019-05-15T23:41:01.546Z,3.12
2019-05-15T23:43:28.247Z,2.70
2019-05-15T23:45:54.392Z,2.70
2019-05-15T23:48:19.903Z,2.45
2019-05-15T23:50:45.417Z,2.37
2019-05-15T23:53:10.902Z,2.83
2019-05-15T23:55:36.398Z,3.15
2019-05-15T23:58:02.168Z,3.00
